Time;durP1;ratioP1;P1;durP2;ratioP2;P2;SDS_P1;SDS_P2;PMS_P1;PMS_P2;Temp;Humidity;BMP_temperature;BMP_pressure;BME280_temperature;BME280_humidity;BME280_pressure;Samples;Min_cycle;Max_cycle;Signal;HPM_P1;HPM_P2
2021/11/08 00:01:21;;;;;;;10.85;3.42;;;;;;;6.33;81.28;100275.26;1784111;80;21121;-81
2021/11/08 00:03:49;;;;;;;12.13;3.65;;;;;;;6.36;81.26;100280.29;1784738;80;21538;-82
2021/11/08 00:06:16;;;;;;;13.20;3.42;;;;;;;6.40;81.24;100282.16;1784746;80;20991;-82
2021/11/08 00:08:42;;;;;;;16.40;3.75;;;;;;;6.42;81.21;100281.51;1784480;80;20994;-81
2021/11/08 00:11:08;;;;;;;11.00;3.40;;;;;;;6.45;81.19;100280.72;1776435;80;21018;-81
2021/11/08 00:13:36;;;;;;;11.93;4.75;;;;;;;6.47;81.17;100277.42;1760994;81;21082;-81
2021/11/08 00:18:36;;;;;;;13.18;3.20;;;;;;;6.51;81.14;100284.10;1751344;81;21022;-82
2021/11/08 00:20:57;;;;;;;12.28;3.05;;;;;;;6.52;81.10;100279.16;1750469;81;21094;-81
2021/11/08 00:23:24;;;;;;;17.35;3.27;;;;;;;6.54;81.08;100281.16;1686636;85;21031;-81
2021/11/08 00:25:50;;;;;;;10.23;2.80;;;;;;;6.56;81.04;100281.02;1716127;83;21740;-81
2021/11/08 00:28:17;;;;;;;12.13;3.55;;;;;;;6.59;81.00;100288.67;1702897;83;21486;-82
2021/11/08 00:30:43;;;;;;;11.90;2.65;;;;;;;6.62;80.98;100285.72;1747164;82;21003;-82
2021/11/08 00:33:15;;;;;;;10.43;2.80;;;;;;;6.64;80.95;100290.41;1747473;82;21011;-82
2021/11/08 00:35:39;;;;;;;8.43;2.35;;;;;;;6.67;80.92;100287.94;1746296;82;21086;-81
2021/11/08 00:38:07;;;;;;;15.25;3.33;;;;;;;6.71;80.89;100289.32;1747086;82;21141;-81
2021/11/08 00:40:35;;;;;;;10.23;2.80;;;;;;;6.75;80.83;100291.53;1747426;82;20988;-81
2021/11/08 00:43:01;;;;;;;12.73;3.58;;;;;;;6.76;80.80;100281.25;1747071;82;21515;-82
2021/11/08 00:45:27;;;;;;;13.68;5.60;;;;;;;6.80;80.74;100291.06;1741121;81;21696;-81
2021/11/08 00:47:54;;;;;;;16.27;3.50;;;;;;;6.82;80.68;100286.47;1740652;81;21067;-81
2021/11/08 00:50:21;;;;;;;8.28;2.55;;;;;;;6.84;80.64;100287.14;1740978;82;21524;-81
2021/11/08 00:52:48;;;;;;;7.65;2.45;;;;;;;6.87;80.59;100289.48;1740834;81;20992;-81
2021/11/08 00:55:15;;;;;;;8.90;2.80;;;;;;;6.88;80.54;100292.49;1741096;81;21039;-81
2021/11/08 00:57:44;;;;;;;11.93;2.77;;;;;;;6.90;80.47;100291.84;1740953;82;21567;-82
2021/11/08 01:00:10;;;;;;;11.10;3.30;;;;;;;6.91;80.43;100296.17;1741041;81;21516;-81
2021/11/08 01:02:37;;;;;;;8.13;2.65;;;;;;;6.91;80.38;100296.17;1740889;82;21136;-82
2021/11/08 01:05:05;;;;;;;11.93;3.10;;;;;;;6.92;80.35;100305.31;1741113;81;20999;-82
2021/11/08 01:07:31;;;;;;;11.12;2.77;;;;;;;6.94;80.28;100301.17;1740972;82;21063;-82
2021/11/08 01:09:58;;;;;;;12.80;2.52;;;;;;;6.95;80.25;100302.84;1741076;82;20988;-82
2021/11/08 01:12:25;;;;;;;11.03;3.83;;;;;;;6.96;80.22;100299.22;1741273;82;21078;-82
2021/11/08 01:14:53;;;;;;;16.00;2.70;;;;;;;6.96;80.16;100313.31;1741244;82;21128;-82
2021/11/08 01:17:20;;;;;;;14.55;3.72;;;;;;;6.98;80.10;100305.19;1741471;82;21024;-82
2021/11/08 01:19:47;;;;;;;8.75;2.35;;;;;;;6.97;80.05;100298.21;1741749;82;21571;-81
2021/11/08 01:22:17;;;;;;;10.28;2.58;;;;;;;6.99;80.01;100300.24;1741528;82;21019;-81
2021/11/08 01:24:51;;;;;;;9.83;2.60;;;;;;;7.01;79.95;100303.56;1741209;82;21008;-81
2021/11/08 01:27:12;;;;;;;10.10;2.90;;;;;;;7.00;79.89;100300.59;1740558;82;21173;-82
2021/11/08 01:29:38;;;;;;;14.23;3.80;;;;;;;7.02;79.86;100298.61;1741687;82;20979;-82
2021/11/08 01:32:06;;;;;;;16.52;5.25;;;;;;;7.03;79.78;100308.24;1741723;82;21520;-81
2021/11/08 01:34:32;;;;;;;12.68;4.40;;;;;;;7.03;79.76;100306.43;1741726;82;21096;-82
2021/11/08 01:37:00;;;;;;;14.23;4.12;;;;;;;7.02;79.71;100314.03;1741543;81;21052;-82
2021/11/08 01:39:34;;;;;;;12.33;3.65;;;;;;;7.03;79.67;100316.20;1741513;82;21319;-81
2021/11/08 01:42:08;;;;;;;15.90;3.27;;;;;;;7.04;79.64;100317.84;1740967;82;21123;-81
2021/11/08 01:44:34;;;;;;;11.95;3.65;;;;;;;7.05;79.59;100327.47;1747170;81;20979;-82
2021/11/08 01:47:01;;;;;;;8.25;2.83;;;;;;;7.05;79.57;100316.87;1756996;81;21059;-81
2021/11/08 01:49:27;;;;;;;7.08;2.85;;;;;;;7.05;79.52;100316.87;1757252;81;21567;-81
2021/11/08 01:51:54;;;;;;;14.45;3.17;;;;;;;7.06;79.49;100325.17;1757025;81;21732;-81
2021/11/08 01:54:20;;;;;;;13.25;2.72;;;;;;;7.07;79.46;100325.53;1757156;81;21018;-82
2021/11/08 01:56:46;;;;;;;8.38;2.40;;;;;;;7.07;79.42;100328.18;1756981;81;21008;-81
2021/11/08 01:59:13;;;;;;;9.50;2.58;;;;;;;7.08;79.39;100332.47;1757174;81;21106;-82
2021/11/08 02:01:39;;;;;;;9.98;2.72;;;;;;;7.08;79.35;100329.83;1757100;81;20987;-81
2021/11/08 02:04:05;;;;;;;11.10;2.55;;;;;;;7.09;79.31;100326.20;1757220;81;21629;-81
2021/11/08 02:06:31;;;;;;;8.83;2.35;;;;;;;7.10;79.28;100334.99;1756458;81;21002;-81
2021/11/08 02:08:57;;;;;;;10.32;2.72;;;;;;;7.09;79.23;100334.16;1757096;81;21058;-81
2021/11/08 02:11:23;;;;;;;11.08;2.70;;;;;;;7.10;79.20;100321.73;1757182;81;21014;-81
2021/11/08 02:13:50;;;;;;;9.53;2.90;;;;;;;7.12;79.16;100339.16;1757713;81;21046;-81
2021/11/08 02:16:16;;;;;;;12.80;2.95;;;;;;;7.12;79.12;100340.48;1757655;81;21648;-81
2021/11/08 02:18:43;;;;;;;11.93;4.78;;;;;;;7.13;79.08;100334.69;1757635;81;20991;-81
2021/11/08 02:21:11;;;;;;;14.85;2.92;;;;;;;7.12;79.05;100344.45;1757318;81;21045;-81
2021/11/08 02:23:38;;;;;;;13.20;4.53;;;;;;;7.12;79.02;100348.44;1757427;81;21471;-81
2021/11/08 02:26:08;;;;;;;12.65;2.87;;;;;;;7.11;78.97;100349.41;1757720;81;21003;-81
2021/11/08 02:28:32;;;;;;;14.70;3.12;;;;;;;7.12;78.93;100350.25;1757084;80;21459;-81
2021/11/08 02:30:58;;;;;;;13.20;3.25;;;;;;;7.12;78.90;100351.09;1757552;81;20958;-82
2021/11/08 02:33:25;;;;;;;12.58;3.00;;;;;;;7.11;78.87;100358.69;1757644;81;21018;-81
2021/11/08 02:35:53;;;;;;;20.20;3.75;;;;;;;7.11;78.83;100361.34;1757242;81;21038;-81
2021/11/08 02:38:26;;;;;;;9.73;2.22;;;;;;;7.09;78.81;100359.34;1757031;81;21022;-81
2021/11/08 02:40:50;;;;;;;8.90;3.37;;;;;;;7.08;78.77;100352.36;1756206;80;21088;-81
2021/11/08 02:43:24;;;;;;;16.65;2.98;;;;;;;7.08;78.72;100359.48;1757696;81;20980;-81
2021/11/08 02:46:02;;;;;;;8.93;2.42;;;;;;;7.06;78.70;100360.13;1745075;81;21047;-81
2021/11/08 02:48:24;;;;;;;12.88;3.08;;;;;;;7.06;78.67;100368.92;1740466;82;21007;-82
2021/11/08 02:50:56;;;;;;;11.28;2.62;;;;;;;7.05;78.64;100369.90;1741569;82;21023;-81
2021/11/08 02:53:18;;;;;;;9.20;2.60;;;;;;;7.04;78.58;100369.06;1741042;82;21906;-82
2021/11/08 02:55:45;;;;;;;10.78;2.92;;;;;;;7.05;78.58;100369.90;1741584;82;20968;-82
2021/11/08 02:58:11;;;;;;;15.03;3.27;;;;;;;7.04;78.55;100369.55;1741790;82;21066;-82
2021/11/08 03:00:37;;;;;;;10.60;2.55;;;;;;;7.05;78.50;100369.90;1741741;82;20975;-81
2021/11/08 03:03:04;;;;;;;11.25;2.77;;;;;;;7.05;78.49;100368.57;1741694;82;21000;-81
2021/11/08 03:05:35;;;;;;;13.90;2.87;;;;;;;7.04;78.45;100369.06;1741797;82;21864;-81
2021/11/08 03:08:02;;;;;;;13.55;4.10;;;;;;;7.03;78.44;100366.57;1741496;82;21007;-81
2021/11/08 03:10:30;;;;;;;13.13;3.05;;;;;;;7.03;78.41;100369.22;1741603;82;21604;-82
2021/11/08 03:12:58;;;;;;;16.52;4.03;;;;;;;7.02;78.38;100371.52;1741734;82;21003;-81
2021/11/08 03:18:13;;;;;;;12.70;3.52;;;;;;;6.95;78.36;100374.42;1627928;87;21242;-81
2021/11/08 03:20:36;;;;;;;8.48;3.17;;;;;;;6.87;78.41;100379.61;1704750;82;21007;-82
2021/11/08 03:23:06;;;;;;;8.10;2.40;;;;;;;6.81;78.43;100375.74;1741578;82;21012;-81
2021/11/08 03:28:03;;;;;;;17.05;3.27;;;;;;;6.66;78.58;100376.35;1741576;82;21023;-81
2021/11/08 03:30:40;;;;;;;14.40;3.62;;;;;;;6.59;78.63;100380.56;1741513;82;21247;-82
2021/11/08 03:33:02;;;;;;;13.03;3.25;;;;;;;6.52;78.73;100386.45;1740161;82;21016;-81
2021/11/08 03:35:29;;;;;;;17.48;3.10;;;;;;;6.47;78.83;100391.33;1741384;82;21082;-82
2021/11/08 03:37:55;;;;;;;14.60;2.92;;;;;;;6.43;78.93;100392.63;1741771;82;20980;-81
2021/11/08 03:40:30;;;;;;;16.30;3.83;;;;;;;6.40;79.03;100406.13;1742004;82;21023;-82
2021/11/08 03:42:57;;;;;;;13.65;3.40;;;;;;;6.37;79.11;100402.45;1741843;81;21016;-81
2021/11/08 03:45:24;;;;;;;14.38;3.70;;;;;;;6.33;79.26;100402.38;1748642;81;21086;-82
2021/11/08 03:47:51;;;;;;;16.48;3.27;;;;;;;6.32;79.32;100406.03;1757830;81;21046;-81
2021/11/08 03:50:18;;;;;;;9.48;3.00;;;;;;;6.31;79.42;100416.75;1757013;81;21026;-81
2021/11/08 03:52:45;;;;;;;12.78;3.80;;;;;;;6.27;79.52;100416.20;1757656;81;21082;-81
2021/11/08 03:55:12;;;;;;;16.80;4.10;;;;;;;6.23;79.63;100425.39;1757771;81;21162;-81
2021/11/08 03:57:38;;;;;;;14.40;3.95;;;;;;;6.21;79.74;100419.42;1757882;81;21456;-81
2021/11/08 04:00:11;;;;;;;16.27;5.40;;;;;;;6.19;79.86;100427.16;1757671;81;21035;-81
2021/11/08 04:02:38;;;;;;;16.37;5.90;;;;;;;6.16;79.95;100432.23;1757632;81;21317;-81
2021/11/08 04:05:06;;;;;;;15.58;5.40;;;;;;;6.15;80.04;100431.91;1757720;81;21014;-81
2021/11/08 04:07:32;;;;;;;18.52;5.47;;;;;;;6.15;80.17;100437.69;1757749;81;21880;-81
2021/11/08 04:09:59;;;;;;;15.00;4.47;;;;;;;6.13;80.25;100431.67;1757664;81;21050;-81
2021/11/08 04:12:28;;;;;;;13.40;4.15;;;;;;;6.14;80.35;100436.01;1756852;81;20987;-81
2021/11/08 04:14:55;;;;;;;15.85;4.17;;;;;;;6.13;80.42;100437.81;1757470;81;21088;-81
2021/11/08 04:17:24;;;;;;;12.85;3.90;;;;;;;6.14;80.50;100441.30;1757656;81;21014;-81
2021/11/08 04:19:49;;;;;;;19.27;4.12;;;;;;;6.15;80.60;100442.98;1757509;81;21283;-81
2021/11/08 04:22:15;;;;;;;17.32;4.25;;;;;;;6.17;80.68;100446.31;1757679;81;20883;-82
2021/11/08 04:24:42;;;;;;;14.30;3.92;;;;;;;6.17;80.73;100443.66;1757891;81;20975;-81
2021/11/08 04:27:09;;;;;;;11.08;3.67;;;;;;;6.16;80.82;100446.80;1757765;81;21308;-81
2021/11/08 04:29:35;;;;;;;14.70;3.92;;;;;;;6.17;80.89;100443.18;1757424;81;21050;-81
2021/11/08 04:32:03;;;;;;;9.48;2.98;;;;;;;6.18;80.97;100451.48;1757891;81;21078;-81
2021/11/08 04:34:40;;;;;;;15.80;3.02;;;;;;;6.20;81.04;100450.84;1757678;81;20999;-81
2021/11/08 04:40:04;;;;;;;8.80;3.27;;;;;;;6.23;81.20;100454.52;1757926;81;20999;-81
2021/11/08 04:42:36;;;;;;;13.80;3.52;;;;;;;6.25;81.27;100449.94;1755622;80;21010;-81
2021/11/08 04:50:28;;;;;;;18.87;6.60;;;;;;;6.26;81.43;100463.51;1757104;81;21058;-82
2021/11/08 05:30:16;;;;;;;8.83;3.22;;;;;;;6.12;82.24;100493.57;1757774;81;21066;-81
2021/11/08 05:32:45;;;;;;;12.65;3.40;;;;;;;6.10;82.29;100491.05;1757716;81;21019;-82
2021/11/08 05:35:13;;;;;;;9.47;4.10;;;;;;;6.09;82.32;100486.72;1757750;81;21737;-82
2021/11/08 05:37:44;;;;;;;11.95;4.80;;;;;;;6.09;82.37;100495.17;1757686;81;21078;-82
2021/11/08 05:40:16;;;;;;;10.25;4.65;;;;;;;6.08;82.43;100491.69;1757694;81;21494;-82
2021/11/08 05:42:42;;;;;;;12.82;3.42;;;;;;;6.08;82.47;100494.81;1757553;81;21000;-82
2021/11/08 05:45:11;;;;;;;12.70;3.77;;;;;;;6.07;82.50;100496.62;1773007;80;21031;-81
2021/11/08 05:47:38;;;;;;;11.08;3.52;;;;;;;6.07;82.58;100505.89;1774012;80;21599;-80
2021/11/08 05:50:06;;;;;;;7.72;3.47;;;;;;;6.07;82.64;100509.86;1774145;80;21172;-81
2021/11/08 05:52:32;;;;;;;13.98;4.05;;;;;;;6.07;82.68;100515.64;1773951;80;21500;-81
2021/11/08 05:54:58;;;;;;;11.03;3.85;;;;;;;6.09;82.73;100512.38;1773996;80;21050;-81
2021/11/08 05:57:48;;;;;;;6.62;3.60;;;;;;;6.09;82.76;100518.48;1773955;80;21031;-80
2021/11/08 06:49:26;;;;;;;7.45;3.77;;;;;;;6.21;83.79;100578.30;1727528;83;21055;-82
2021/11/08 06:51:54;;;;;;;8.68;3.30;;;;;;;6.21;83.83;100575.65;1727224;83;21495;-81
2021/11/08 06:54:21;;;;;;;10.13;4.22;;;;;;;6.22;83.85;100590.57;1727533;83;21066;-82
2021/11/08 06:56:52;;;;;;;9.40;3.37;;;;;;;6.23;83.90;100589.57;1727458;83;21179;-81
2021/11/08 06:59:16;;;;;;;8.13;3.72;;;;;;;6.25;83.91;100595.59;1726963;83;21002;-82
2021/11/08 07:01:44;;;;;;;10.20;3.72;;;;;;;6.27;83.96;100607.34;1727670;83;21015;-82
2021/11/08 07:04:10;;;;;;;11.50;5.00;;;;;;;6.27;84.00;100606.02;1727263;83;21011;-81
2021/11/08 07:06:36;;;;;;;10.20;3.95;;;;;;;6.28;84.03;100615.17;1727602;83;21435;-81
2021/11/08 07:09:03;;;;;;;9.53;3.77;;;;;;;6.29;84.06;100616.02;1727484;83;21179;-81
2021/11/08 07:11:30;;;;;;;10.68;3.55;;;;;;;6.30;84.12;100618.50;1727767;83;21466;-82
2021/11/08 07:13:56;;;;;;;14.85;6.55;;;;;;;6.31;84.13;100624.16;1727799;83;21039;-82
2021/11/08 07:16:22;;;;;;;23.75;9.80;;;;;;;6.33;84.16;100631.47;1727771;83;20884;-81
2021/11/08 07:18:48;;;;;;;15.28;7.83;;;;;;;6.33;84.21;100631.47;1727584;83;21315;-81
2021/11/08 07:21:14;;;;;;;17.35;10.10;;;;;;;6.35;84.24;100637.48;1727683;83;21087;-81
2021/11/08 07:23:40;;;;;;;13.72;8.93;;;;;;;6.37;84.27;100643.95;1773747;81;21417;-82
2021/11/08 07:26:07;;;;;;;22.60;13.18;;;;;;;6.37;84.31;100642.14;1725902;83;20999;-82
2021/11/08 07:28:33;;;;;;;8.50;5.12;;;;;;;6.39;84.33;100645.51;1773084;81;21542;-82
2021/11/08 07:30:59;;;;;;;9.13;5.42;;;;;;;6.42;84.37;100645.23;1726310;83;20987;-81
2021/11/08 07:33:27;;;;;;;11.43;5.30;;;;;;;6.43;84.40;100648.23;1727689;83;21102;-82
2021/11/08 07:35:53;;;;;;;13.40;6.40;;;;;;;6.45;84.44;100657.36;1727538;83;20991;-81
2021/11/08 07:38:19;;;;;;;10.10;5.00;;;;;;;6.45;84.48;100655.55;1727768;83;21077;-81
2021/11/08 07:40:45;;;;;;;12.13;5.12;;;;;;;6.47;84.51;100658.89;1727746;83;21062;-81
2021/11/08 07:43:11;;;;;;;7.67;4.87;;;;;;;6.48;84.54;100659.25;1727642;83;21014;-82
2021/11/08 07:45:39;;;;;;;7.47;4.12;;;;;;;6.49;84.56;100667.55;1727554;83;21179;-81
2021/11/08 07:48:06;;;;;;;6.37;4.00;;;;;;;6.51;84.60;100670.05;1727442;82;21035;-81
2021/11/08 07:50:32;;;;;;;11.33;4.95;;;;;;;6.52;84.63;100673.89;1727249;83;21003;-81
2021/11/08 07:52:58;;;;;;;6.75;4.30;;;;;;;6.50;84.68;100679.84;1762752;80;21484;-82
2021/11/08 07:55:24;;;;;;;9.20;4.17;;;;;;;6.52;84.71;100673.89;1726153;81;21006;-81
2021/11/08 07:57:50;;;;;;;9.88;4.83;;;;;;;6.54;84.72;100678.55;1727924;81;21239;-81
2021/11/08 08:00:16;;;;;;;10.40;5.85;;;;;;;6.54;84.75;100674.58;1761819;81;21011;-82
2021/11/08 08:02:42;;;;;;;9.63;4.90;;;;;;;6.57;84.77;100676.63;1713733;82;21063;-81
2021/11/08 08:05:08;;;;;;;13.05;7.65;;;;;;;6.58;84.81;100675.66;1747041;81;21017;-81
2021/11/08 08:07:34;;;;;;;16.15;10.60;;;;;;;6.58;84.83;100676.47;1745722;81;21656;-82
2021/11/08 08:10:01;;;;;;;16.17;10.82;;;;;;;6.60;84.86;100680.32;1758865;80;21035;-82
2021/11/08 08:12:27;;;;;;;22.35;13.80;;;;;;;6.63;84.88;100684.02;1728195;81;21019;-82
2021/11/08 08:14:53;;;;;;;17.50;12.20;;;;;;;6.67;84.91;100696.86;1742492;81;21553;-82
2021/11/08 08:17:19;;;;;;;16.73;11.50;;;;;;;6.70;84.95;100692.61;1733709;81;21039;-82
2021/11/08 08:19:46;;;;;;;18.60;11.28;;;;;;;6.73;84.97;100699.44;1747728;81;21014;-81
2021/11/08 08:22:12;;;;;;;20.77;11.53;;;;;;;6.75;85.00;100702.80;1751088;81;21146;-81
2021/11/08 08:24:38;;;;;;;16.93;10.40;;;;;;;6.78;85.02;100703.85;1757159;81;20971;-83
2021/11/08 08:27:04;;;;;;;20.00;10.43;;;;;;;6.81;85.04;100710.20;1728615;81;21053;-82
2021/11/08 08:29:32;;;;;;;11.12;7.83;;;;;;;6.82;85.05;100706.09;1752897;80;21536;-82
2021/11/08 08:31:58;;;;;;;16.12;8.50;;;;;;;6.85;85.08;100710.27;1724892;83;21074;-82
2021/11/08 08:34:25;;;;;;;26.12;13.00;;;;;;;6.86;85.12;100712.77;1734203;82;21150;-82
2021/11/08 08:36:53;;;;;;;19.50;11.75;;;;;;;6.90;85.12;100710.20;1725927;82;21492;-82
2021/11/08 08:39:20;;;;;;;20.97;12.35;;;;;;;6.95;85.14;100711.11;1728930;82;21049;-82
2021/11/08 08:41:47;;;;;;;17.42;10.75;;;;;;;6.99;85.16;100715.17;1728228;82;21571;-83
2021/11/08 08:44:14;;;;;;;14.50;8.55;;;;;;;7.03;85.18;100721.87;1732528;81;21042;-82
2021/11/08 08:46:44;;;;;;;14.25;7.62;;;;;;;7.08;85.18;100728.06;1727801;82;21122;-82
2021/11/08 08:49:13;;;;;;;;;;;;;;;7.12;85.20;100718.85;1717133;82;21009;-82
2021/11/08 08:51:39;;;;;;;15.25;8.03;;;;;;;7.15;85.22;100722.06;1723702;82;20178;-82
2021/11/08 08:54:06;;;;;;;14.50;9.18;;;;;;;7.19;85.23;100722.13;1727243;82;21000;-82
2021/11/08 08:56:33;;;;;;;24.12;13.38;;;;;;;7.25;85.25;100730.84;1733042;82;21015;-81
2021/11/08 08:58:59;;;;;;;19.48;11.93;;;;;;;7.25;85.26;100736.16;1744843;81;21171;-81
2021/11/08 09:01:26;;;;;;;13.28;8.98;;;;;;;7.26;85.24;100736.51;1750444;81;21051;-81
2021/11/08 09:03:53;;;;;;;23.35;13.48;;;;;;;7.32;85.28;100743.90;1753772;81;21103;-82
2021/11/08 09:06:19;;;;;;;20.90;10.60;;;;;;;7.39;85.31;100751.64;1751653;81;21031;-81
2021/11/08 09:08:45;;;;;;;17.75;7.60;;;;;;;7.41;85.30;100755.02;1746083;80;21039;-81
2021/11/08 09:11:11;;;;;;;18.67;8.15;;;;;;;7.41;85.31;100753.69;1756234;81;21160;-82
2021/11/08 09:13:37;;;;;;;26.82;10.72;;;;;;;7.42;85.31;100765.14;1750125;80;21094;-81
2021/11/08 09:16:10;;;;;;;36.33;14.53;;;;;;;7.43;85.32;100766.31;1755441;81;21062;-81
2021/11/08 09:18:32;;;;;;;30.40;13.05;;;;;;;7.42;85.35;100761.97;1751042;80;21000;-81
2021/11/08 09:20:58;;;;;;;17.62;8.35;;;;;;;7.41;85.37;100766.95;1754237;80;21315;-81
2021/11/08 09:23:24;;;;;;;31.27;14.80;;;;;;;7.42;85.36;100766.47;1752182;80;21187;-81
2021/11/08 09:25:50;;;;;;;19.60;8.78;;;;;;;7.43;85.37;100768.97;1765404;81;21027;-81
2021/11/08 09:28:16;;;;;;;21.62;11.70;;;;;;;7.44;85.35;100772.45;1760290;80;21007;-82
2021/11/08 09:30:44;;;;;;;22.67;12.37;;;;;;;7.46;85.38;100777.13;1757317;80;21027;-82
2021/11/08 09:33:10;;;;;;;16.80;8.78;;;;;;;7.47;85.39;100782.30;1747115;81;21030;-82
2021/11/08 09:35:37;;;;;;;15.93;6.35;;;;;;;7.49;85.39;100780.33;1725326;83;21647;-81
2021/11/08 09:38:06;;;;;;;16.10;7.30;;;;;;;7.49;85.39;100780.33;1708776;82;21657;-81
2021/11/08 09:40:33;;;;;;;20.68;8.45;;;;;;;7.51;85.40;100782.86;1726329;82;21604;-82
2021/11/08 09:42:59;;;;;;;24.23;11.48;;;;;;;7.54;85.39;100782.09;1748264;81;21029;-85
2021/11/08 09:45:25;;;;;;;49.10;22.95;;;;;;;7.59;85.41;100787.47;1718838;81;21071;-86
2021/11/08 09:47:51;;;;;;;31.07;13.95;;;;;;;7.61;85.39;100790.80;1712632;81;21677;-86
2021/11/08 09:50:21;;;;;;;40.48;19.12;;;;;;;7.64;85.39;100790.52;1706144;83;21000;-85
2021/11/08 09:52:48;;;;;;;27.02;18.98;;;;;;;7.68;85.41;100787.93;1712396;81;27434;-86
2021/11/08 09:55:19;;;;;;;50.43;20.12;;;;;;;7.73;85.41;100781.72;1712564;83;21084;-86
2021/11/08 09:57:46;;;;;;;20.77;10.78;;;;;;;7.74;85.42;100790.04;1720447;83;21066;-86
2021/11/08 10:00:40;;;;;;;26.87;12.60;;;;;;;7.76;85.40;100784.09;1698553;83;41131;-85
2021/11/08 10:03:11;;;;;;;17.12;8.53;;;;;;;7.81;85.42;100787.16;1708903;83;21015;-81
2021/11/08 10:05:41;;;;;;;10.28;5.70;;;;;;;7.87;85.42;100785.26;1714212;83;21015;-81
2021/11/08 10:08:07;;;;;;;8.40;4.60;;;;;;;7.92;85.43;100782.99;1704902;83;21094;-81
2021/11/08 10:10:33;;;;;;;13.28;6.25;;;;;;;8.00;85.43;100784.45;1707618;83;21507;-82
2021/11/08 10:13:13;;;;;;;11.70;4.97;;;;;;;8.03;85.42;100781.50;1698918;83;21129;-83
2021/11/08 10:15:46;;;;;;;10.72;5.80;;;;;;;8.08;85.42;100780.59;1701982;83;21007;-83
2021/11/08 10:18:13;;;;;;;10.43;5.17;;;;;;;8.12;85.43;100787.78;1701134;83;21093;-83
2021/11/08 10:20:42;;;;;;;8.80;4.42;;;;;;;8.13;85.42;100792.13;1699471;83;21078;-83
2021/11/08 10:23:09;;;;;;;10.80;6.22;;;;;;;8.15;85.42;100784.83;1703097;83;21027;-83
2021/11/08 10:25:37;;;;;;;18.85;7.78;;;;;;;8.12;85.38;100795.75;1697412;83;21797;-82
2021/11/08 10:28:17;;;;;;;25.62;10.68;;;;;;;8.10;85.41;100801.19;1698173;83;21500;-83
2021/11/08 10:30:45;;;;;;;37.28;15.50;;;;;;;8.08;85.39;100807.16;1699847;83;21066;-83
2021/11/08 10:33:20;;;;;;;23.73;12.85;;;;;;;8.06;85.38;100805.11;1698828;83;21277;-83
2021/11/08 10:35:53;;;;;;;34.33;17.90;;;;;;;8.04;85.38;100812.40;1698911;83;21040;-83
2021/11/08 10:38:24;;;;;;;28.17;12.43;;;;;;;8.05;85.36;100818.06;1699209;83;21831;-83
2021/11/08 10:40:56;;;;;;;33.73;15.32;;;;;;;8.08;85.34;100816.45;1707318;82;21039;-83
2021/11/08 10:43:29;;;;;;;24.75;13.32;;;;;;;8.10;85.34;100822.44;1705603;83;21562;-82
2021/11/08 10:45:59;;;;;;;23.35;13.93;;;;;;;8.16;85.33;100817.06;1687206;83;21563;-82
2021/11/08 10:48:30;;;;;;;25.20;11.73;;;;;;;8.25;85.31;100823.67;1741695;81;21019;-82
2021/11/08 10:51:00;;;;;;;21.87;10.50;;;;;;;8.34;85.32;100817.99;1763634;80;21195;-81
2021/11/08 10:53:29;;;;;;;25.23;12.43;;;;;;;8.35;85.28;100815.20;1768727;80;21018;-82
2021/11/08 10:55:56;;;;;;;23.22;10.63;;;;;;;8.36;85.29;100814.72;1760102;80;21093;-82
2021/11/08 10:58:22;;;;;;;15.95;6.95;;;;;;;8.33;85.26;100823.83;1755891;81;21063;-82
2021/11/08 11:00:55;;;;;;;17.20;8.35;;;;;;;8.34;85.27;100825.48;1768824;80;21003;-82
2021/11/08 11:03:22;;;;;;;11.75;5.62;;;;;;;8.33;85.26;100822.50;1740267;81;21944;-82
2021/11/08 11:06:04;;;;;;;19.82;7.40;;;;;;;8.33;85.24;100820.33;1777457;80;21034;-82
2021/11/08 11:08:31;;;;;;;9.15;4.72;;;;;;;8.35;85.21;100823.66;1735947;82;21583;-82
2021/11/08 11:11:02;;;;;;;8.35;5.00;;;;;;;8.37;85.20;100828.36;1758369;80;21034;-83
2021/11/08 11:13:29;;;;;;;13.03;5.42;;;;;;;8.32;85.18;100830.11;1736311;82;21146;-83
2021/11/08 11:16:04;;;;;;;10.98;5.37;;;;;;;8.28;85.19;100826.06;1765199;81;21854;-82
2021/11/08 11:18:35;;;;;;;13.13;6.12;;;;;;;8.26;85.17;100826.69;1760633;81;21046;-82
2021/11/08 11:21:20;;;;;;;18.30;7.65;;;;;;;8.35;85.19;100832.48;1758289;81;21054;-82
2021/11/08 11:23:50;;;;;;;19.40;9.23;;;;;;;8.44;85.18;100831.59;1753435;81;21014;-80
2021/11/08 11:26:17;;;;;;;;;;;;;;;8.50;85.17;100833.69;1761995;80;21145;-80
2021/11/08 11:28:46;;;;;;;20.45;9.88;;;;;;;8.53;85.16;100840.04;1765605;80;21153;-80
2021/11/08 11:31:16;;;;;;;23.42;12.82;;;;;;;8.58;85.17;100842.75;1736908;82;21500;-79
2021/11/08 11:33:41;;;;;;;20.72;11.18;;;;;;;8.64;85.16;100839.50;1754369;81;21612;-81
2021/11/08 11:36:10;;;;;;;17.87;8.15;;;;;;;8.64;85.14;100835.03;1755693;80;20984;-82
2021/11/08 11:38:45;;;;;;;12.43;5.28;;;;;;;8.70;85.16;100830.92;1738461;82;21015;-82
2021/11/08 11:41:16;;;;;;;24.52;9.53;;;;;;;8.80;85.13;100823.73;1737397;81;21328;-82
2021/11/08 11:43:52;;;;;;;22.10;8.50;;;;;;;8.90;85.14;100821.89;1738328;82;21504;-83
2021/11/08 11:46:21;;;;;;;11.68;4.37;;;;;;;9.06;85.12;100823.39;1738029;82;21068;-83
2021/11/08 11:48:47;;;;;;;11.97;5.20;;;;;;;9.19;85.09;100825.19;1732577;81;21528;-83
2021/11/08 11:51:18;;;;;;;14.55;5.85;;;;;;;9.28;85.04;100829.63;1730555;82;21551;-83
2021/11/08 11:53:45;;;;;;;7.45;3.40;;;;;;;9.36;85.04;100819.03;1729183;81;21162;-83
2021/11/08 11:56:12;;;;;;;11.30;5.05;;;;;;;9.41;84.97;100824.75;1730745;83;21567;-83
2021/11/08 11:58:38;;;;;;;9.90;4.00;;;;;;;9.44;84.89;100824.44;1730560;83;21012;-83
2021/11/08 12:01:06;;;;;;;9.15;5.05;;;;;;;9.41;84.80;100825.23;1730485;82;21072;-83
2021/11/08 12:03:34;;;;;;;8.88;4.45;;;;;;;9.42;84.71;100826.44;1730729;83;21521;-83
2021/11/08 12:06:00;;;;;;;8.53;4.72;;;;;;;9.46;84.63;100829.63;1730500;83;21183;-83
2021/11/08 12:08:34;;;;;;;8.95;4.65;;;;;;;9.48;84.56;100832.96;1730597;83;21469;-83
2021/11/08 12:10:57;;;;;;;8.75;3.83;;;;;;;9.51;84.49;100830.83;1730091;81;21052;-83
2021/11/08 12:13:26;;;;;;;11.18;5.50;;;;;;;9.46;84.36;100830.44;1730637;83;21043;-83
2021/11/08 12:15:52;;;;;;;9.43;6.55;;;;;;;9.44;84.24;100829.77;1703513;83;21021;-84
2021/11/08 12:18:20;;;;;;;8.48;5.92;;;;;;;9.43;84.13;100836.07;1730939;83;21477;-82
2021/11/08 12:20:51;;;;;;;14.15;7.97;;;;;;;9.38;84.03;100842.36;1730441;83;21002;-81
2021/11/08 12:23:24;;;;;;;17.57;7.55;;;;;;;9.31;83.95;100847.95;1730683;83;21958;-81
2021/11/08 12:25:51;;;;;;;13.72;7.00;;;;;;;9.25;83.87;100845.89;1729418;83;21052;-83
2021/11/08 12:28:26;;;;;;;8.20;4.40;;;;;;;9.21;83.83;100847.18;1730250;83;21716;-82
2021/11/08 12:30:55;;;;;;;13.78;5.53;;;;;;;9.22;83.78;100840.84;1730494;82;21741;-82
2021/11/08 12:33:34;;;;;;;8.48;5.10;;;;;;;9.18;83.71;100838.66;1730484;82;21516;-83
2021/11/08 12:36:11;;;;;;;8.23;5.00;;;;;;;9.10;83.67;100841.22;1730760;83;21095;-82
2021/11/08 12:38:54;;;;;;;11.83;7.42;;;;;;;9.08;83.63;100837.89;1727929;81;21287;-82
2021/11/08 12:41:30;;;;;;;17.48;10.90;;;;;;;9.11;83.61;100839.75;1720597;81;21035;-82
2021/11/08 12:44:04;;;;;;;11.35;6.50;;;;;;;9.18;83.57;100835.51;1705130;83;21184;-82
2021/11/08 12:46:44;;;;;;;9.13;4.92;;;;;;;9.24;83.54;100837.56;1729592;81;21055;-82
2021/11/08 12:49:44;;;;;;;13.15;6.87;;;;;;;9.26;83.49;100828.91;1727827;82;21068;-82
2021/11/08 12:52:21;;;;;;;12.30;7.95;;;;;;;9.22;83.42;100835.52;1726606;81;21029;-82
2021/11/08 12:55:05;;;;;;;17.73;8.65;;;;;;;9.19;83.37;100844.30;1727070;81;21082;-82
2021/11/08 12:57:31;;;;;;;19.02;13.28;;;;;;;9.15;83.32;100845.09;1726635;83;21174;-82
2021/11/08 13:00:17;;;;;;;26.40;15.95;;;;;;;9.14;83.28;100851.42;1727446;83;21069;-82
2021/11/08 13:02:54;;;;;;;15.68;10.03;;;;;;;9.11;83.23;100847.73;1727664;81;21017;-82
2021/11/08 13:05:33;;;;;;;12.88;7.70;;;;;;;9.12;83.15;100848.06;1726609;81;21044;-82
2021/11/08 13:07:59;;;;;;;20.40;11.55;;;;;;;9.12;83.13;100853.38;1727679;83;21072;-82
2021/11/08 13:10:29;;;;;;;25.90;15.80;;;;;;;9.08;83.10;100855.17;1727573;83;21088;-82
2021/11/08 13:12:55;;;;;;;15.05;8.23;;;;;;;9.03;83.07;100858.28;1727736;83;20993;-82
2021/11/08 13:15:26;;;;;;;20.08;9.98;;;;;;;8.96;83.02;100859.37;1727265;83;21059;-83